sensor_id;sensor_type;location;lat;lon;timestamp;P1;durP1;ratioP1;P2;durP2;ratioP2
40162;SDS011;25881;47.462;19.304;2023-11-18T00:02:14;8.80;;;6.53;;
40162;SDS011;25881;47.462;19.304;2023-11-18T00:04:39;8.97;;;6.30;;
40162;SDS011;25881;47.462;19.304;2023-11-18T00:07:04;8.80;;;6.43;;
40162;SDS011;25881;47.462;19.304;2023-11-18T00:09:30;12.03;;;6.83;;
40162;SDS011;25881;47.462;19.304;2023-11-18T00:11:56;10.10;;;6.65;;
40162;SDS011;25881;47.462;19.304;2023-11-18T00:14:21;8.98;;;6.60;;
40162;SDS011;25881;47.462;19.304;2023-11-18T00:16:46;9.15;;;6.85;;
40162;SDS011;25881;47.462;19.304;2023-11-18T00:19:12;10.07;;;6.65;;
40162;SDS011;25881;47.462;19.304;2023-11-18T00:21:37;10.30;;;6.50;;
40162;SDS011;25881;47.462;19.304;2023-11-18T00:24:02;8.73;;;6.50;;
40162;SDS011;25881;47.462;19.304;2023-11-18T00:26:27;8.27;;;6.50;;
40162;SDS011;25881;47.462;19.304;2023-11-18T00:28:54;8.20;;;5.95;;
40162;SDS011;25881;47.462;19.304;2023-11-18T00:31:19;7.57;;;5.57;;
40162;SDS011;25881;47.462;19.304;2023-11-18T00:33:44;9.30;;;5.83;;
40162;SDS011;25881;47.462;19.304;2023-11-18T00:36:10;8.45;;;6.07;;
40162;SDS011;25881;47.462;19.304;2023-11-18T00:38:35;7.65;;;6.03;;
40162;SDS011;25881;47.462;19.304;2023-11-18T00:41:00;9.73;;;6.07;;
40162;SDS011;25881;47.462;19.304;2023-11-18T00:43:26;8.60;;;5.87;;
40162;SDS011;25881;47.462;19.304;2023-11-18T00:45:51;9.68;;;6.53;;
40162;SDS011;25881;47.462;19.304;2023-11-18T00:48:17;7.05;;;5.57;;
40162;SDS011;25881;47.462;19.304;2023-11-18T00:50:42;7.32;;;5.63;;
40162;SDS011;25881;47.462;19.304;2023-11-18T00:53:07;7.33;;;5.87;;
40162;SDS011;25881;47.462;19.304;2023-11-18T00:55:32;8.33;;;5.40;;
40162;SDS011;25881;47.462;19.304;2023-11-18T00:57:57;8.23;;;5.70;;
40162;SDS011;25881;47.462;19.304;2023-11-18T01:00:23;9.02;;;6.30;;
40162;SDS011;25881;47.462;19.304;2023-11-18T01:02:51;8.77;;;5.93;;
40162;SDS011;25881;47.462;19.304;2023-11-18T01:05:16;7.97;;;5.57;;
40162;SDS011;25881;47.462;19.304;2023-11-18T01:07:41;8.67;;;6.13;;
40162;SDS011;25881;47.462;19.304;2023-11-18T01:10:08;6.70;;;4.93;;
40162;SDS011;25881;47.462;19.304;2023-11-18T01:12:35;7.47;;;5.38;;
40162;SDS011;25881;47.462;19.304;2023-11-18T01:15:00;6.53;;;5.22;;
40162;SDS011;25881;47.462;19.304;2023-11-18T01:17:25;7.63;;;5.07;;
40162;SDS011;25881;47.462;19.304;2023-11-18T01:19:51;8.68;;;5.28;;
40162;SDS011;25881;47.462;19.304;2023-11-18T01:22:16;7.65;;;5.30;;
40162;SDS011;25881;47.462;19.304;2023-11-18T01:24:43;7.80;;;5.13;;
40162;SDS011;25881;47.462;19.304;2023-11-18T01:27:08;8.35;;;5.13;;
40162;SDS011;25881;47.462;19.304;2023-11-18T01:29:35;7.68;;;5.95;;
40162;SDS011;25881;47.462;19.304;2023-11-18T01:32:00;7.75;;;5.35;;
40162;SDS011;25881;47.462;19.304;2023-11-18T01:34:25;7.50;;;5.40;;
40162;SDS011;25881;47.462;19.304;2023-11-18T01:36:50;8.63;;;5.93;;
40162;SDS011;25881;47.462;19.304;2023-11-18T01:39:18;7.00;;;5.73;;
40162;SDS011;25881;47.462;19.304;2023-11-18T01:41:44;6.93;;;4.85;;
40162;SDS011;25881;47.462;19.304;2023-11-18T01:44:10;7.63;;;5.75;;
40162;SDS011;25881;47.462;19.304;2023-11-18T01:46:35;7.40;;;5.13;;
40162;SDS011;25881;47.462;19.304;2023-11-18T01:49:01;7.82;;;5.20;;
40162;SDS011;25881;47.462;19.304;2023-11-18T01:51:28;6.95;;;5.18;;
40162;SDS011;25881;47.462;19.304;2023-11-18T01:53:54;7.47;;;5.20;;
40162;SDS011;25881;47.462;19.304;2023-11-18T01:56:19;7.90;;;5.18;;
40162;SDS011;25881;47.462;19.304;2023-11-18T01:58:46;6.10;;;5.03;;
40162;SDS011;25881;47.462;19.304;2023-11-18T02:01:11;7.43;;;5.50;;
40162;SDS011;25881;47.462;19.304;2023-11-18T02:03:36;7.03;;;5.10;;
40162;SDS011;25881;47.462;19.304;2023-11-18T02:06:03;8.30;;;5.00;;
40162;SDS011;25881;47.462;19.304;2023-11-18T02:08:30;7.45;;;5.53;;
40162;SDS011;25881;47.462;19.304;2023-11-18T02:10:57;7.90;;;5.25;;
40162;SDS011;25881;47.462;19.304;2023-11-18T02:13:32;7.45;;;5.05;;
40162;SDS011;25881;47.462;19.304;2023-11-18T02:15:59;6.57;;;5.22;;
40162;SDS011;25881;47.462;19.304;2023-11-18T02:18:30;7.47;;;5.57;;
40162;SDS011;25881;47.462;19.304;2023-11-18T02:20:56;7.10;;;5.28;;
40162;SDS011;25881;47.462;19.304;2023-11-18T02:23:27;7.07;;;5.18;;
40162;SDS011;25881;47.462;19.304;2023-11-18T02:25:53;9.07;;;5.65;;
40162;SDS011;25881;47.462;19.304;2023-11-18T02:28:18;6.25;;;4.95;;
40162;SDS011;25881;47.462;19.304;2023-11-18T02:30:44;10.75;;;6.50;;
40162;SDS011;25881;47.462;19.304;2023-11-18T02:33:20;6.82;;;5.00;;
40162;SDS011;25881;47.462;19.304;2023-11-18T02:35:54;9.13;;;5.90;;
40162;SDS011;25881;47.462;19.304;2023-11-18T02:38:26;6.28;;;4.90;;
40162;SDS011;25881;47.462;19.304;2023-11-18T02:40:52;8.23;;;5.35;;
40162;SDS011;25881;47.462;19.304;2023-11-18T02:43:21;7.15;;;5.18;;
40162;SDS011;25881;47.462;19.304;2023-11-18T02:45:49;7.93;;;5.43;;
40162;SDS011;25881;47.462;19.304;2023-11-18T02:48:14;6.35;;;4.90;;
40162;SDS011;25881;47.462;19.304;2023-11-18T02:50:40;7.88;;;5.07;;
40162;SDS011;25881;47.462;19.304;2023-11-18T02:53:06;6.00;;;4.80;;
40162;SDS011;25881;47.462;19.304;2023-11-18T02:55:34;6.88;;;4.80;;
40162;SDS011;25881;47.462;19.304;2023-11-18T02:57:59;6.13;;;4.83;;
40162;SDS011;25881;47.462;19.304;2023-11-18T03:00:24;8.43;;;5.15;;
40162;SDS011;25881;47.462;19.304;2023-11-18T03:02:50;7.47;;;5.20;;
40162;SDS011;25881;47.462;19.304;2023-11-18T03:05:17;7.43;;;5.80;;
40162;SDS011;25881;47.462;19.304;2023-11-18T03:07:42;7.30;;;5.30;;
40162;SDS011;25881;47.462;19.304;2023-11-18T03:10:09;7.53;;;5.25;;
40162;SDS011;25881;47.462;19.304;2023-11-18T03:12:36;6.30;;;4.95;;
40162;SDS011;25881;47.462;19.304;2023-11-18T03:15:01;7.25;;;4.55;;
40162;SDS011;25881;47.462;19.304;2023-11-18T03:17:26;7.65;;;5.10;;
40162;SDS011;25881;47.462;19.304;2023-11-18T03:19:51;7.43;;;5.32;;
40162;SDS011;25881;47.462;19.304;2023-11-18T03:22:17;6.90;;;4.88;;
40162;SDS011;25881;47.462;19.304;2023-11-18T03:24:42;7.77;;;4.83;;
40162;SDS011;25881;47.462;19.304;2023-11-18T03:27:07;6.65;;;5.00;;
40162;SDS011;25881;47.462;19.304;2023-11-18T03:29:33;6.68;;;5.03;;
40162;SDS011;25881;47.462;19.304;2023-11-18T03:31:59;7.20;;;4.85;;
40162;SDS011;25881;47.462;19.304;2023-11-18T03:34:24;7.00;;;5.05;;
40162;SDS011;25881;47.462;19.304;2023-11-18T03:36:50;9.00;;;4.47;;
40162;SDS011;25881;47.462;19.304;2023-11-18T03:39:16;6.70;;;4.75;;
40162;SDS011;25881;47.462;19.304;2023-11-18T03:41:41;8.77;;;4.95;;
40162;SDS011;25881;47.462;19.304;2023-11-18T03:44:09;6.10;;;4.40;;
40162;SDS011;25881;47.462;19.304;2023-11-18T03:46:34;6.95;;;4.97;;
40162;SDS011;25881;47.462;19.304;2023-11-18T03:49:00;6.97;;;4.97;;
40162;SDS011;25881;47.462;19.304;2023-11-18T03:51:26;5.75;;;4.28;;
40162;SDS011;25881;47.462;19.304;2023-11-18T03:53:51;8.52;;;5.25;;
40162;SDS011;25881;47.462;19.304;2023-11-18T03:56:17;6.40;;;4.67;;
40162;SDS011;25881;47.462;19.304;2023-11-18T03:58:43;6.90;;;5.22;;
40162;SDS011;25881;47.462;19.304;2023-11-18T04:01:08;7.93;;;5.10;;
40162;SDS011;25881;47.462;19.304;2023-11-18T04:03:36;8.05;;;5.70;;
40162;SDS011;25881;47.462;19.304;2023-11-18T04:06:01;7.88;;;5.10;;
40162;SDS011;25881;47.462;19.304;2023-11-18T04:08:28;8.75;;;4.90;;
40162;SDS011;25881;47.462;19.304;2023-11-18T04:10:53;6.28;;;4.88;;
40162;SDS011;25881;47.462;19.304;2023-11-18T04:13:19;7.13;;;5.17;;
40162;SDS011;25881;47.462;19.304;2023-11-18T04:15:44;6.28;;;4.70;;
40162;SDS011;25881;47.462;19.304;2023-11-18T04:18:10;8.52;;;4.90;;
40162;SDS011;25881;47.462;19.304;2023-11-18T04:20:35;7.28;;;5.20;;
40162;SDS011;25881;47.462;19.304;2023-11-18T04:23:01;6.63;;;5.15;;
40162;SDS011;25881;47.462;19.304;2023-11-18T04:25:27;6.75;;;5.38;;
40162;SDS011;25881;47.462;19.304;2023-11-18T04:27:52;7.38;;;5.43;;
40162;SDS011;25881;47.462;19.304;2023-11-18T04:30:18;7.47;;;5.50;;
40162;SDS011;25881;47.462;19.304;2023-11-18T04:32:43;7.20;;;5.10;;
40162;SDS011;25881;47.462;19.304;2023-11-18T04:35:08;7.50;;;5.00;;
40162;SDS011;25881;47.462;19.304;2023-11-18T04:37:34;7.88;;;4.85;;
40162;SDS011;25881;47.462;19.304;2023-11-18T04:40:00;6.10;;;4.97;;
40162;SDS011;25881;47.462;19.304;2023-11-18T04:42:26;6.90;;;4.80;;
40162;SDS011;25881;47.462;19.304;2023-11-18T04:44:51;7.17;;;5.03;;
40162;SDS011;25881;47.462;19.304;2023-11-18T04:47:17;6.18;;;4.70;;
40162;SDS011;25881;47.462;19.304;2023-11-18T04:49:43;7.07;;;5.00;;
40162;SDS011;25881;47.462;19.304;2023-11-18T04:52:09;6.00;;;4.68;;
40162;SDS011;25881;47.462;19.304;2023-11-18T04:54:34;6.95;;;4.85;;
40162;SDS011;25881;47.462;19.304;2023-11-18T04:57:00;7.78;;;5.28;;
40162;SDS011;25881;47.462;19.304;2023-11-18T04:59:25;6.65;;;4.97;;
40162;SDS011;25881;47.462;19.304;2023-11-18T05:01:51;7.30;;;5.10;;
40162;SDS011;25881;47.462;19.304;2023-11-18T05:04:18;7.25;;;4.85;;
40162;SDS011;25881;47.462;19.304;2023-11-18T05:06:43;6.33;;;4.83;;
40162;SDS011;25881;47.462;19.304;2023-11-18T05:09:08;7.17;;;5.17;;
40162;SDS011;25881;47.462;19.304;2023-11-18T05:11:33;6.68;;;4.82;;
40162;SDS011;25881;47.462;19.304;2023-11-18T05:13:59;6.82;;;5.03;;
40162;SDS011;25881;47.462;19.304;2023-11-18T05:16:25;5.47;;;4.72;;
40162;SDS011;25881;47.462;19.304;2023-11-18T05:18:50;7.10;;;5.07;;
40162;SDS011;25881;47.462;19.304;2023-11-18T05:21:16;6.68;;;5.18;;
40162;SDS011;25881;47.462;19.304;2023-11-18T05:23:41;7.37;;;5.40;;
40162;SDS011;25881;47.462;19.304;2023-11-18T05:26:06;6.17;;;5.07;;
40162;SDS011;25881;47.462;19.304;2023-11-18T05:28:31;6.13;;;5.20;;
40162;SDS011;25881;47.462;19.304;2023-11-18T05:30:57;5.93;;;4.43;;
40162;SDS011;25881;47.462;19.304;2023-11-18T05:33:31;6.28;;;4.88;;
40162;SDS011;25881;47.462;19.304;2023-11-18T05:35:59;8.68;;;6.65;;
40162;SDS011;25881;47.462;19.304;2023-11-18T05:38:24;8.37;;;6.37;;
40162;SDS011;25881;47.462;19.304;2023-11-18T05:40:52;7.82;;;5.22;;
40162;SDS011;25881;47.462;19.304;2023-11-18T05:43:24;6.88;;;5.60;;
40162;SDS011;25881;47.462;19.304;2023-11-18T05:45:51;6.97;;;5.50;;
40162;SDS011;25881;47.462;19.304;2023-11-18T05:48:35;7.00;;;5.30;;
40162;SDS011;25881;47.462;19.304;2023-11-18T05:51:09;7.95;;;5.50;;
40162;SDS011;25881;47.462;19.304;2023-11-18T05:53:39;9.43;;;5.50;;
40162;SDS011;25881;47.462;19.304;2023-11-18T05:56:04;6.97;;;5.47;;
40162;SDS011;25881;47.462;19.304;2023-11-18T05:58:31;6.22;;;5.35;;
40162;SDS011;25881;47.462;19.304;2023-11-18T06:00:57;7.18;;;5.22;;
40162;SDS011;25881;47.462;19.304;2023-11-18T06:03:23;6.83;;;5.27;;
40162;SDS011;25881;47.462;19.304;2023-11-18T06:05:48;7.55;;;5.18;;
40162;SDS011;25881;47.462;19.304;2023-11-18T06:08:13;6.43;;;4.85;;
40162;SDS011;25881;47.462;19.304;2023-11-18T06:10:39;6.72;;;5.70;;
40162;SDS011;25881;47.462;19.304;2023-11-18T06:13:04;6.00;;;5.07;;
40162;SDS011;25881;47.462;19.304;2023-11-18T06:15:29;8.10;;;5.27;;
40162;SDS011;25881;47.462;19.304;2023-11-18T06:17:54;8.43;;;6.38;;
40162;SDS011;25881;47.462;19.304;2023-11-18T06:20:20;9.13;;;7.70;;
40162;SDS011;25881;47.462;19.304;2023-11-18T06:22:48;7.13;;;5.78;;
40162;SDS011;25881;47.462;19.304;2023-11-18T06:25:13;7.07;;;5.40;;
40162;SDS011;25881;47.462;19.304;2023-11-18T06:27:39;7.67;;;5.20;;
40162;SDS011;25881;47.462;19.304;2023-11-18T06:30:04;11.20;;;5.30;;
40162;SDS011;25881;47.462;19.304;2023-11-18T06:32:31;9.10;;;5.40;;
40162;SDS011;25881;47.462;19.304;2023-11-18T06:34:56;6.83;;;5.37;;
40162;SDS011;25881;47.462;19.304;2023-11-18T06:37:22;7.67;;;5.57;;
40162;SDS011;25881;47.462;19.304;2023-11-18T06:39:47;8.23;;;5.47;;
40162;SDS011;25881;47.462;19.304;2023-11-18T06:42:13;7.43;;;4.55;;
40162;SDS011;25881;47.462;19.304;2023-11-18T06:44:39;10.10;;;5.10;;
40162;SDS011;25881;47.462;19.304;2023-11-18T06:47:04;8.45;;;5.20;;
40162;SDS011;25881;47.462;19.304;2023-11-18T06:49:31;6.07;;;4.50;;
40162;SDS011;25881;47.462;19.304;2023-11-18T06:51:59;5.90;;;4.57;;
40162;SDS011;25881;47.462;19.304;2023-11-18T06:54:27;5.68;;;4.07;;
40162;SDS011;25881;47.462;19.304;2023-11-18T06:56:53;7.80;;;5.35;;
40162;SDS011;25881;47.462;19.304;2023-11-18T06:59:18;6.75;;;4.47;;
40162;SDS011;25881;47.462;19.304;2023-11-18T07:01:43;5.77;;;4.00;;
40162;SDS011;25881;47.462;19.304;2023-11-18T07:04:09;6.53;;;4.47;;
40162;SDS011;25881;47.462;19.304;2023-11-18T07:06:34;7.18;;;4.30;;
40162;SDS011;25881;47.462;19.304;2023-11-18T07:09:03;5.88;;;4.18;;
40162;SDS011;25881;47.462;19.304;2023-11-18T07:11:28;5.45;;;3.75;;
40162;SDS011;25881;47.462;19.304;2023-11-18T07:13:53;5.57;;;4.00;;
40162;SDS011;25881;47.462;19.304;2023-11-18T07:16:21;6.47;;;4.03;;
40162;SDS011;25881;47.462;19.304;2023-11-18T07:18:47;5.72;;;4.07;;
40162;SDS011;25881;47.462;19.304;2023-11-18T07:21:13;5.28;;;4.10;;
40162;SDS011;25881;47.462;19.304;2023-11-18T07:23:39;4.50;;;3.47;;
40162;SDS011;25881;47.462;19.304;2023-11-18T07:26:04;5.57;;;3.60;;
40162;SDS011;25881;47.462;19.304;2023-11-18T07:28:30;8.17;;;3.70;;
40162;SDS011;25881;47.462;19.304;2023-11-18T07:30:56;6.25;;;3.20;;
40162;SDS011;25881;47.462;19.304;2023-11-18T07:33:23;4.88;;;3.55;;
40162;SDS011;25881;47.462;19.304;2023-11-18T07:35:48;3.95;;;2.92;;
40162;SDS011;25881;47.462;19.304;2023-11-18T07:38:14;4.65;;;3.20;;
40162;SDS011;25881;47.462;19.304;2023-11-18T07:40:39;4.38;;;3.30;;
40162;SDS011;25881;47.462;19.304;2023-11-18T07:43:11;4.43;;;3.20;;
40162;SDS011;25881;47.462;19.304;2023-11-18T07:45:36;4.88;;;2.70;;
40162;SDS011;25881;47.462;19.304;2023-11-18T07:48:05;4.15;;;2.83;;
40162;SDS011;25881;47.462;19.304;2023-11-18T07:50:33;3.78;;;2.80;;
40162;SDS011;25881;47.462;19.304;2023-11-18T07:52:58;4.15;;;3.22;;
40162;SDS011;25881;47.462;19.304;2023-11-18T07:55:23;4.20;;;2.83;;
40162;SDS011;25881;47.462;19.304;2023-11-18T07:57:49;5.20;;;2.97;;
40162;SDS011;25881;47.462;19.304;2023-11-18T08:00:14;7.43;;;3.23;;
40162;SDS011;25881;47.462;19.304;2023-11-18T08:02:40;4.28;;;2.80;;
40162;SDS011;25881;47.462;19.304;2023-11-18T08:05:05;5.23;;;2.77;;
40162;SDS011;25881;47.462;19.304;2023-11-18T08:07:34;3.63;;;2.83;;
40162;SDS011;25881;47.462;19.304;2023-11-18T08:10:06;4.03;;;2.55;;
40162;SDS011;25881;47.462;19.304;2023-11-18T08:12:32;4.95;;;2.83;;
40162;SDS011;25881;47.462;19.304;2023-11-18T08:14:57;4.05;;;2.42;;
40162;SDS011;25881;47.462;19.304;2023-11-18T08:17:24;3.78;;;2.53;;
40162;SDS011;25881;47.462;19.304;2023-11-18T08:19:50;2.47;;;2.10;;
40162;SDS011;25881;47.462;19.304;2023-11-18T08:22:16;3.53;;;2.50;;
40162;SDS011;25881;47.462;19.304;2023-11-18T08:24:43;3.20;;;2.20;;
40162;SDS011;25881;47.462;19.304;2023-11-18T08:27:09;2.72;;;2.33;;
40162;SDS011;25881;47.462;19.304;2023-11-18T08:29:34;2.78;;;2.00;;
40162;SDS011;25881;47.462;19.304;2023-11-18T08:32:00;3.47;;;2.30;;
40162;SDS011;25881;47.462;19.304;2023-11-18T08:34:25;4.97;;;2.70;;
40162;SDS011;25881;47.462;19.304;2023-11-18T08:36:51;4.10;;;2.58;;
40162;SDS011;25881;47.462;19.304;2023-11-18T08:39:16;4.10;;;2.33;;
40162;SDS011;25881;47.462;19.304;2023-11-18T08:41:44;6.25;;;2.33;;
40162;SDS011;25881;47.462;19.304;2023-11-18T08:44:10;5.20;;;2.35;;
40162;SDS011;25881;47.462;19.304;2023-11-18T08:46:38;4.07;;;2.42;;
40162;SDS011;25881;47.462;19.304;2023-11-18T08:49:04;4.90;;;3.30;;
40162;SDS011;25881;47.462;19.304;2023-11-18T08:51:35;4.65;;;2.33;;
40162;SDS011;25881;47.462;19.304;2023-11-18T08:54:02;5.70;;;2.47;;
40162;SDS011;25881;47.462;19.304;2023-11-18T08:56:34;8.40;;;3.83;;
40162;SDS011;25881;47.462;19.304;2023-11-18T08:58:59;5.05;;;2.72;;
40162;SDS011;25881;47.462;19.304;2023-11-18T09:01:25;7.38;;;3.85;;
40162;SDS011;25881;47.462;19.304;2023-11-18T09:03:53;7.90;;;2.43;;
40162;SDS011;25881;47.462;19.304;2023-11-18T09:06:18;4.68;;;2.80;;
40162;SDS011;25881;47.462;19.304;2023-11-18T09:08:48;3.58;;;2.30;;
40162;SDS011;25881;47.462;19.304;2023-11-18T09:11:23;3.30;;;2.40;;
40162;SDS011;25881;47.462;19.304;2023-11-18T09:13:50;3.28;;;2.42;;
40162;SDS011;25881;47.462;19.304;2023-11-18T09:16:19;4.72;;;2.65;;
40162;SDS011;25881;47.462;19.304;2023-11-18T09:21:12;4.78;;;2.22;;
40162;SDS011;25881;47.462;19.304;2023-11-18T09:23:41;3.03;;;2.03;;
40162;SDS011;25881;47.462;19.304;2023-11-18T09:26:06;3.80;;;2.30;;
40162;SDS011;25881;47.462;19.304;2023-11-18T09:28:32;4.10;;;2.28;;
40162;SDS011;25881;47.462;19.304;2023-11-18T09:31:00;4.05;;;2.30;;
40162;SDS011;25881;47.462;19.304;2023-11-18T09:33:28;5.43;;;3.10;;
40162;SDS011;25881;47.462;19.304;2023-11-18T09:35:57;3.33;;;2.00;;
40162;SDS011;25881;47.462;19.304;2023-11-18T09:38:32;2.90;;;1.70;;
40162;SDS011;25881;47.462;19.304;2023-11-18T09:40:57;5.20;;;1.90;;
40162;SDS011;25881;47.462;19.304;2023-11-18T09:43:28;3.35;;;1.60;;
40162;SDS011;25881;47.462;19.304;2023-11-18T09:45:58;2.30;;;1.60;;
40162;SDS011;25881;47.462;19.304;2023-11-18T09:48:27;3.20;;;2.25;;
40162;SDS011;25881;47.462;19.304;2023-11-18T09:50:52;3.60;;;1.90;;
40162;SDS011;25881;47.462;19.304;2023-11-18T09:53:19;1.92;;;1.65;;
40162;SDS011;25881;47.462;19.304;2023-11-18T09:56:07;2.53;;;1.80;;
40162;SDS011;25881;47.462;19.304;2023-11-18T09:58:39;3.58;;;1.70;;
40162;SDS011;25881;47.462;19.304;2023-11-18T10:01:06;4.40;;;2.20;;
40162;SDS011;25881;47.462;19.304;2023-11-18T10:03:31;2.47;;;1.85;;
40162;SDS011;25881;47.462;19.304;2023-11-18T10:06:01;4.05;;;2.10;;
40162;SDS011;25881;47.462;19.304;2023-11-18T10:08:30;3.00;;;1.85;;
40162;SDS011;25881;47.462;19.304;2023-11-18T10:10:55;4.47;;;1.88;;
40162;SDS011;25881;47.462;19.304;2023-11-18T10:13:30;3.95;;;1.50;;
40162;SDS011;25881;47.462;19.304;2023-11-18T10:15:55;7.57;;;1.90;;
40162;SDS011;25881;47.462;19.304;2023-11-18T10:18:22;2.17;;;1.70;;
40162;SDS011;25881;47.462;19.304;2023-11-18T10:20:49;2.30;;;1.90;;
40162;SDS011;25881;47.462;19.304;2023-11-18T10:23:17;2.00;;;1.50;;
40162;SDS011;25881;47.462;19.304;2023-11-18T10:25:46;2.22;;;1.58;;
40162;SDS011;25881;47.462;19.304;2023-11-18T10:30:52;3.08;;;1.80;;
40162;SDS011;25881;47.462;19.304;2023-11-18T10:33:17;5.55;;;1.70;;
40162;SDS011;25881;47.462;19.304;2023-11-18T10:35:52;3.97;;;2.00;;
40162;SDS011;25881;47.462;19.304;2023-11-18T10:38:20;1.75;;;1.48;;
40162;SDS011;25881;47.462;19.304;2023-11-18T10:40:50;1.90;;;1.45;;
40162;SDS011;25881;47.462;19.304;2023-11-18T10:43:15;1.95;;;1.50;;
40162;SDS011;25881;47.462;19.304;2023-11-18T10:45:42;2.70;;;1.60;;
40162;SDS011;25881;47.462;19.304;2023-11-18T10:48:07;2.25;;;1.50;;
40162;SDS011;25881;47.462;19.304;2023-11-18T10:50:33;5.07;;;1.98;;
40162;SDS011;25881;47.462;19.304;2023-11-18T10:53:01;2.53;;;1.90;;
40162;SDS011;25881;47.462;19.304;2023-11-18T10:55:37;2.35;;;1.63;;
40162;SDS011;25881;47.462;19.304;2023-11-18T10:58:03;3.28;;;1.75;;
40162;SDS011;25881;47.462;19.304;2023-11-18T11:03:18;2.42;;;1.50;;
40162;SDS011;25881;47.462;19.304;2023-11-18T11:05:43;2.97;;;1.73;;
40162;SDS011;25881;47.462;19.304;2023-11-18T11:08:09;4.28;;;1.80;;
40162;SDS011;25881;47.462;19.304;2023-11-18T11:10:37;5.57;;;2.00;;
40162;SDS011;25881;47.462;19.304;2023-11-18T11:13:06;1.83;;;1.30;;
40162;SDS011;25881;47.462;19.304;2023-11-18T11:15:33;2.38;;;1.48;;
40162;SDS011;25881;47.462;19.304;2023-11-18T11:18:07;2.60;;;1.80;;
40162;SDS011;25881;47.462;19.304;2023-11-18T11:20:41;1.52;;;1.17;;
40162;SDS011;25881;47.462;19.304;2023-11-18T11:28:24;2.05;;;1.38;;
40162;SDS011;25881;47.462;19.304;2023-11-18T11:33:31;4.57;;;1.65;;
40162;SDS011;25881;47.462;19.304;2023-11-18T11:36:05;1.50;;;1.40;;
40162;SDS011;25881;47.462;19.304;2023-11-18T11:38:36;3.08;;;1.65;;
40162;SDS011;25881;47.462;19.304;2023-11-18T11:41:02;3.72;;;1.63;;
40162;SDS011;25881;47.462;19.304;2023-11-18T11:43:33;1.90;;;1.30;;
40162;SDS011;25881;47.462;19.304;2023-11-18T11:46:00;1.83;;;1.42;;
40162;SDS011;25881;47.462;19.304;2023-11-18T11:48:28;2.03;;;1.38;;
40162;SDS011;25881;47.462;19.304;2023-11-18T11:56:46;2.45;;;1.45;;
40162;SDS011;25881;47.462;19.304;2023-11-18T11:59:16;2.30;;;1.50;;
40162;SDS011;25881;47.462;19.304;2023-11-18T12:01:41;1.83;;;1.17;;
40162;SDS011;25881;47.462;19.304;2023-11-18T12:04:11;1.98;;;1.10;;
40162;SDS011;25881;47.462;19.304;2023-11-18T12:06:45;4.25;;;1.48;;
40162;SDS011;25881;47.462;19.304;2023-11-18T12:09:13;1.92;;;1.20;;
40162;SDS011;25881;47.462;19.304;2023-11-18T12:11:44;3.05;;;1.60;;
40162;SDS011;25881;47.462;19.304;2023-11-18T12:14:13;2.75;;;1.30;;
40162;SDS011;25881;47.462;19.304;2023-11-18T12:17:03;2.38;;;1.13;;
40162;SDS011;25881;47.462;19.304;2023-11-18T12:19:46;2.67;;;1.67;;
40162;SDS011;25881;47.462;19.304;2023-11-18T12:22:14;2.90;;;1.40;;
40162;SDS011;25881;47.462;19.304;2023-11-18T12:33:01;6.18;;;1.55;;
40162;SDS011;25881;47.462;19.304;2023-11-18T12:35:32;1.58;;;1.40;;
40162;SDS011;25881;47.462;19.304;2023-11-18T12:43:01;4.07;;;1.40;;
40162;SDS011;25881;47.462;19.304;2023-11-18T12:47:58;2.40;;;1.50;;
40162;SDS011;25881;47.462;19.304;2023-11-18T12:50:36;1.77;;;1.25;;
40162;SDS011;25881;47.462;19.304;2023-11-18T12:53:04;1.40;;;1.17;;
40162;SDS011;25881;47.462;19.304;2023-11-18T12:55:31;1.67;;;1.20;;
40162;SDS011;25881;47.462;19.304;2023-11-18T12:57:58;2.00;;;1.20;;
40162;SDS011;25881;47.462;19.304;2023-11-18T13:00:24;2.00;;;1.08;;
40162;SDS011;25881;47.462;19.304;2023-11-18T13:02:55;4.53;;;2.33;;
40162;SDS011;25881;47.462;19.304;2023-11-18T13:05:22;3.10;;;1.23;;
40162;SDS011;25881;47.462;19.304;2023-11-18T13:07:48;1.70;;;1.00;;
40162;SDS011;25881;47.462;19.304;2023-11-18T13:10:16;2.13;;;1.10;;
40162;SDS011;25881;47.462;19.304;2023-11-18T13:12:42;2.25;;;1.00;;
40162;SDS011;25881;47.462;19.304;2023-11-18T13:15:08;0.90;;;0.90;;
40162;SDS011;25881;47.462;19.304;2023-11-18T13:17:34;1.80;;;1.13;;
40162;SDS011;25881;47.462;19.304;2023-11-18T13:20:10;2.47;;;1.30;;
40162;SDS011;25881;47.462;19.304;2023-11-18T13:22:38;1.55;;;1.13;;
40162;SDS011;25881;47.462;19.304;2023-11-18T13:25:04;1.40;;;1.00;;
40162;SDS011;25881;47.462;19.304;2023-11-18T13:27:30;2.75;;;1.30;;
40162;SDS011;25881;47.462;19.304;2023-11-18T13:29:57;1.88;;;1.25;;
40162;SDS011;25881;47.462;19.304;2023-11-18T13:32:23;1.88;;;1.30;;
40162;SDS011;25881;47.462;19.304;2023-11-18T13:34:50;2.08;;;1.38;;
40162;SDS011;25881;47.462;19.304;2023-11-18T13:37:16;3.35;;;1.33;;
40162;SDS011;25881;47.462;19.304;2023-11-18T13:39:43;2.17;;;1.30;;
40162;SDS011;25881;47.462;19.304;2023-11-18T13:42:18;2.53;;;1.73;;
40162;SDS011;25881;47.462;19.304;2023-11-18T13:44:44;3.97;;;1.30;;
40162;SDS011;25881;47.462;19.304;2023-11-18T13:47:11;2.28;;;1.20;;
40162;SDS011;25881;47.462;19.304;2023-11-18T13:49:39;5.93;;;1.27;;
40162;SDS011;25881;47.462;19.304;2023-11-18T13:54:34;2.47;;;1.45;;
40162;SDS011;25881;47.462;19.304;2023-11-18T13:57:00;2.78;;;1.58;;
40162;SDS011;25881;47.462;19.304;2023-11-18T13:59:25;3.10;;;1.13;;
40162;SDS011;25881;47.462;19.304;2023-11-18T14:01:54;4.80;;;2.15;;
40162;SDS011;25881;47.462;19.304;2023-11-18T14:04:27;2.97;;;1.80;;
40162;SDS011;25881;47.462;19.304;2023-11-18T14:06:52;4.57;;;2.15;;
40162;SDS011;25881;47.462;19.304;2023-11-18T14:09:21;2.05;;;1.30;;
40162;SDS011;25881;47.462;19.304;2023-11-18T14:11:47;1.70;;;1.40;;
40162;SDS011;25881;47.462;19.304;2023-11-18T14:14:13;1.50;;;1.20;;
40162;SDS011;25881;47.462;19.304;2023-11-18T14:16:38;2.63;;;1.50;;
40162;SDS011;25881;47.462;19.304;2023-11-18T14:19:05;2.55;;;1.60;;
40162;SDS011;25881;47.462;19.304;2023-11-18T14:21:31;2.88;;;1.38;;
40162;SDS011;25881;47.462;19.304;2023-11-18T14:23:57;2.72;;;1.50;;
40162;SDS011;25881;47.462;19.304;2023-11-18T14:26:25;2.97;;;1.63;;
40162;SDS011;25881;47.462;19.304;2023-11-18T14:28:50;2.63;;;1.52;;
40162;SDS011;25881;47.462;19.304;2023-11-18T14:31:15;1.83;;;1.60;;
40162;SDS011;25881;47.462;19.304;2023-11-18T14:33:40;2.13;;;1.63;;
40162;SDS011;25881;47.462;19.304;2023-11-18T14:36:07;3.47;;;2.30;;
40162;SDS011;25881;47.462;19.304;2023-11-18T14:38:34;4.57;;;2.03;;
40162;SDS011;25881;47.462;19.304;2023-11-18T14:40:59;5.00;;;2.30;;
40162;SDS011;25881;47.462;19.304;2023-11-18T14:43:24;3.40;;;1.90;;
40162;SDS011;25881;47.462;19.304;2023-11-18T14:45:49;4.23;;;2.30;;
40162;SDS011;25881;47.462;19.304;2023-11-18T14:48:15;5.00;;;1.80;;
40162;SDS011;25881;47.462;19.304;2023-11-18T14:50:40;2.90;;;1.83;;
40162;SDS011;25881;47.462;19.304;2023-11-18T14:53:05;3.17;;;1.88;;
40162;SDS011;25881;47.462;19.304;2023-11-18T14:55:31;3.28;;;1.70;;
40162;SDS011;25881;47.462;19.304;2023-11-18T14:57:57;3.45;;;2.22;;
40162;SDS011;25881;47.462;19.304;2023-11-18T15:00:23;2.90;;;2.08;;
40162;SDS011;25881;47.462;19.304;2023-11-18T15:02:52;2.85;;;1.85;;
40162;SDS011;25881;47.462;19.304;2023-11-18T15:05:18;3.10;;;1.90;;
40162;SDS011;25881;47.462;19.304;2023-11-18T15:07:53;5.20;;;2.10;;
40162;SDS011;25881;47.462;19.304;2023-11-18T15:10:24;3.38;;;2.33;;
40162;SDS011;25881;47.462;19.304;2023-11-18T15:12:50;3.67;;;2.35;;